createdAt,value
2022-10-18T00:00:07.258Z,73.02
2022-10-18T00:02:37.889Z,72.99
2022-10-18T00:05:05.709Z,73.13
2022-10-18T00:07:33.053Z,73.17
2022-10-18T00:10:00.285Z,73.16
2022-10-18T00:12:27.965Z,73.28
2022-10-18T00:14:55.172Z,73.42
2022-10-18T00:17:22.221Z,73.39
2022-10-18T00:19:50.581Z,73.41
2022-10-18T00:22:17.691Z,73.49
2022-10-18T00:24:44.733Z,73.54
2022-10-18T00:27:12.104Z,73.58
2022-10-18T00:29:39.242Z,73.54
2022-10-18T00:32:06.645Z,73.55
2022-10-18T00:34:33.790Z,73.69
2022-10-18T00:37:00.972Z,73.76
2022-10-18T00:39:27.865Z,73.90
2022-10-18T00:41:54.866Z,73.91
2022-10-18T00:44:24.773Z,73.90
2022-10-18T00:46:53.225Z,73.97
2022-10-18T00:49:35.586Z,74.01
2022-10-18T00:52:09.145Z,74.23
2022-10-18T00:54:38.445Z,73.94
2022-10-18T00:57:06.228Z,73.97
2022-10-18T00:59:33.843Z,74.06
2022-10-18T01:02:01.440Z,74.08
2022-10-18T01:04:29.018Z,74.27
2022-10-18T01:07:05.725Z,74.34
2022-10-18T01:09:42.124Z,74.37
2022-10-18T01:12:24.386Z,74.55
2022-10-18T01:15:10.029Z,74.63
2022-10-18T01:18:01.625Z,74.74
2022-10-18T01:20:53.853Z,74.58
2022-10-18T01:23:57.966Z,74.82
2022-10-18T01:27:06.788Z,74.88
2022-10-18T01:30:04.768Z,74.97
2022-10-18T01:32:36.705Z,75.16
2022-10-18T01:35:04.856Z,75.19
2022-10-18T01:37:33.341Z,75.22
2022-10-18T01:40:03.925Z,75.08
2022-10-18T01:42:31.164Z,75.31
2022-10-18T01:44:59.305Z,75.34
2022-10-18T01:47:27.400Z,75.54
2022-10-18T01:50:00.100Z,75.64
2022-10-18T01:52:27.105Z,75.70
2022-10-18T01:54:55.471Z,75.80
2022-10-18T01:57:33.265Z,75.80
2022-10-18T02:00:12.310Z,75.87
2022-10-18T02:02:57.513Z,76.18
2022-10-18T02:05:40.415Z,76.21
2022-10-18T02:08:22.719Z,76.21
2022-10-18T02:10:56.140Z,76.27
2022-10-18T02:13:26.123Z,76.46
2022-10-18T02:15:57.926Z,76.58
2022-10-18T02:18:26.503Z,76.64
2022-10-18T02:20:53.968Z,76.61
2022-10-18T02:23:23.926Z,76.65
2022-10-18T02:25:51.285Z,76.74
2022-10-18T02:28:18.296Z,76.75
2022-10-18T02:31:04.265Z,76.66
2022-10-18T02:33:40.384Z,76.63
2022-10-18T02:36:32.753Z,76.72
2022-10-18T02:39:06.953Z,76.52
2022-10-18T02:41:34.165Z,76.49
2022-10-18T02:44:01.074Z,76.48
2022-10-18T02:46:28.179Z,76.44
2022-10-18T02:48:55.225Z,76.43
2022-10-18T02:51:22.085Z,76.44
2022-10-18T02:53:49.345Z,76.45
2022-10-18T02:56:16.789Z,76.55
2022-10-18T02:58:43.866Z,76.50
2022-10-18T03:01:10.784Z,76.53
2022-10-18T03:03:38.228Z,76.46
2022-10-18T03:06:05.266Z,76.51
2022-10-18T03:08:32.212Z,76.53
2022-10-18T03:10:59.307Z,76.60
2022-10-18T03:13:26.326Z,76.54
2022-10-18T03:15:53.434Z,76.68
2022-10-18T03:18:20.522Z,76.58
2022-10-18T03:20:47.632Z,76.68
2022-10-18T03:23:14.662Z,76.69
2022-10-18T03:25:44.222Z,76.92
2022-10-18T03:28:13.404Z,76.61
2022-10-18T03:30:40.325Z,76.62
2022-10-18T03:33:07.596Z,76.69
2022-10-18T03:35:34.547Z,76.75
2022-10-18T03:38:01.628Z,76.81
2022-10-18T03:40:28.584Z,76.93
2022-10-18T03:42:55.606Z,76.92
2022-10-18T03:45:25.254Z,76.86
2022-10-18T03:47:53.328Z,76.95
2022-10-18T03:50:20.807Z,76.96
2022-10-18T03:52:47.976Z,76.96
2022-10-18T03:55:14.986Z,77.01
2022-10-18T03:57:42.202Z,76.76
2022-10-18T04:00:10.093Z,76.93
2022-10-18T04:02:41.498Z,77.02
2022-10-18T04:05:09.122Z,77.17
2022-10-18T04:10:04.524Z,76.93
2022-10-18T04:12:31.883Z,77.08
2022-10-18T04:14:59.263Z,77.00
2022-10-18T04:17:26.143Z,77.00
2022-10-18T04:19:53.283Z,77.04
2022-10-18T04:22:20.230Z,77.02
2022-10-18T04:24:47.411Z,76.99
2022-10-18T04:27:14.345Z,77.17
2022-10-18T04:29:41.349Z,77.08
2022-10-18T04:32:08.271Z,77.13
2022-10-18T04:34:35.673Z,77.05
2022-10-18T04:37:02.651Z,77.13
2022-10-18T04:39:29.829Z,77.02
2022-10-18T04:41:56.846Z,77.23
2022-10-18T04:44:23.888Z,77.03
2022-10-18T04:46:50.810Z,77.02
2022-10-18T04:49:17.886Z,77.16
2022-10-18T04:51:44.947Z,77.08
2022-10-18T04:54:11.910Z,77.07
2022-10-18T04:56:38.940Z,77.17
2022-10-18T04:59:05.969Z,77.25
2022-10-18T05:01:33.041Z,77.05
2022-10-18T05:03:59.986Z,77.11
2022-10-18T05:06:26.928Z,77.22
2022-10-18T05:08:53.952Z,77.09
2022-10-18T05:11:21.018Z,77.12
2022-10-18T05:13:50.171Z,77.35
2022-10-18T05:16:18.325Z,77.13
2022-10-18T05:18:45.256Z,77.22
2022-10-18T05:21:12.587Z,77.35
2022-10-18T05:23:39.568Z,77.37
2022-10-18T05:26:07.466Z,77.35
2022-10-18T05:28:40.126Z,77.22
2022-10-18T05:31:09.452Z,77.36
2022-10-18T05:33:36.584Z,77.47
2022-10-18T05:36:04.192Z,77.42
2022-10-18T05:38:31.591Z,77.17
2022-10-18T05:40:59.711Z,77.32
2022-10-18T05:43:29.793Z,77.32
2022-10-18T05:45:56.728Z,77.40
2022-10-18T05:48:24.006Z,77.31
2022-10-18T05:50:51.168Z,77.41
2022-10-18T05:53:35.594Z,77.41
2022-10-18T05:56:04.502Z,77.33
2022-10-18T05:58:31.494Z,77.44
2022-10-18T06:01:00.354Z,77.34
2022-10-18T06:03:31.093Z,77.39
2022-10-18T06:06:07.777Z,77.53
2022-10-18T06:08:35.887Z,77.25
2022-10-18T06:11:23.071Z,77.44
2022-10-18T06:13:51.316Z,77.32
2022-10-18T06:16:22.595Z,77.35
2022-10-18T06:18:51.422Z,77.27
2022-10-18T06:21:19.174Z,77.33
2022-10-18T06:23:52.864Z,77.25
2022-10-18T06:26:20.461Z,77.43
2022-10-18T06:28:47.663Z,77.23
2022-10-18T06:31:15.348Z,77.40
2022-10-18T06:33:42.669Z,77.44
2022-10-18T06:36:28.063Z,77.36
2022-10-18T06:38:56.703Z,77.36
2022-10-18T06:41:24.144Z,77.34
2022-10-18T06:43:53.310Z,77.25
2022-10-18T06:46:20.453Z,77.30
2022-10-18T06:48:48.257Z,77.11
2022-10-18T06:51:15.582Z,77.21
2022-10-18T06:53:44.581Z,77.18
2022-10-18T06:56:20.483Z,77.01
2022-10-18T06:58:47.581Z,76.89
2022-10-18T07:01:16.916Z,76.94
2022-10-18T07:03:44.982Z,76.94
2022-10-18T07:06:13.761Z,76.89
2022-10-18T07:08:41.287Z,76.84
2022-10-18T07:11:09.343Z,76.69
2022-10-18T07:13:36.384Z,76.61
2022-10-18T07:16:05.905Z,76.71
2022-10-18T07:18:37.485Z,76.54
2022-10-18T07:21:06.822Z,76.28
2022-10-18T07:23:35.005Z,76.15
2022-10-18T07:26:02.584Z,76.07
2022-10-18T07:28:30.073Z,76.10
2022-10-18T07:30:57.182Z,75.81
2022-10-18T07:33:26.026Z,75.69
2022-10-18T07:35:53.124Z,75.63
2022-10-18T07:38:20.304Z,75.54
2022-10-18T07:40:47.364Z,75.53
2022-10-18T07:43:14.443Z,75.30
2022-10-18T07:45:41.504Z,75.34
2022-10-18T07:48:08.463Z,75.18
2022-10-18T07:50:36.743Z,75.08
2022-10-18T07:53:03.723Z,75.07
2022-10-18T07:55:30.746Z,75.08
2022-10-18T07:58:00.503Z,74.84
2022-10-18T08:00:27.503Z,74.84
2022-10-18T08:02:58.185Z,74.81
2022-10-18T08:05:26.989Z,74.89
2022-10-18T08:07:54.362Z,74.90
2022-10-18T08:10:22.511Z,74.86
2022-10-18T08:12:49.824Z,74.63
2022-10-18T08:15:17.244Z,74.75
2022-10-18T08:17:44.464Z,74.63
2022-10-18T08:20:19.288Z,74.65
2022-10-18T08:23:00.141Z,74.64
2022-10-18T08:25:28.890Z,74.44
2022-10-18T08:27:55.904Z,74.23
2022-10-18T08:30:23.678Z,74.17
2022-10-18T08:32:50.747Z,74.21
2022-10-18T08:35:17.851Z,73.95
2022-10-18T08:37:45.529Z,74.02
2022-10-18T08:40:16.142Z,73.76
2022-10-18T08:43:19.341Z,73.94
2022-10-18T08:45:49.975Z,73.81
2022-10-18T08:48:25.391Z,73.63
2022-10-18T08:50:54.844Z,73.59
2022-10-18T08:53:30.586Z,73.36
2022-10-18T08:56:11.411Z,73.20
2022-10-18T08:58:38.603Z,73.08
2022-10-18T09:01:28.102Z,72.86
2022-10-18T09:04:16.056Z,72.73
2022-10-18T09:06:50.541Z,72.58
2022-10-18T09:09:41.702Z,72.55
2022-10-18T09:12:30.830Z,72.19
2022-10-18T09:15:05.102Z,72.08
2022-10-18T09:17:35.222Z,72.05
2022-10-18T09:20:24.142Z,71.73
2022-10-18T09:23:03.224Z,71.60
2022-10-18T09:25:44.362Z,71.47
2022-10-18T09:28:16.303Z,71.22
2022-10-18T09:30:54.785Z,70.97
2022-10-18T09:33:36.062Z,70.75
2022-10-18T09:36:25.035Z,70.42
2022-10-18T09:38:57.175Z,70.16
2022-10-18T09:41:30.701Z,69.66
2022-10-18T09:44:02.805Z,69.56
2022-10-18T09:46:38.666Z,69.20
2022-10-18T09:49:23.846Z,68.72
2022-10-18T09:51:52.005Z,68.55
2022-10-18T09:54:42.542Z,68.40
2022-10-18T09:57:22.503Z,68.03
2022-10-18T09:59:50.902Z,67.85
2022-10-18T10:02:22.127Z,67.55
2022-10-18T10:04:50.566Z,67.34
2022-10-18T10:07:24.965Z,67.16
2022-10-18T10:10:04.922Z,66.82
2022-10-18T10:12:37.291Z,66.66
2022-10-18T10:15:31.390Z,66.68
2022-10-18T10:18:05.066Z,66.45
2022-10-18T10:20:42.963Z,66.42
2022-10-18T10:23:28.583Z,66.23
2022-10-18T10:26:01.024Z,66.03
2022-10-18T10:28:30.954Z,66.00
2022-10-18T10:31:29.590Z,65.58
2022-10-18T10:34:05.525Z,65.63
2022-10-18T10:36:34.268Z,65.41
2022-10-18T10:39:19.512Z,65.30
2022-10-18T10:41:56.983Z,65.25
2022-10-18T10:44:26.565Z,65.03
2022-10-18T10:46:55.085Z,65.04
2022-10-18T10:49:40.954Z,64.68
2022-10-18T10:52:26.921Z,64.69
2022-10-18T10:55:05.756Z,64.61
2022-10-18T10:57:38.815Z,64.58
2022-10-18T11:00:06.426Z,64.20
2022-10-18T11:02:35.539Z,64.45
2022-10-18T11:05:25.737Z,64.52
2022-10-18T11:07:55.624Z,64.39
2022-10-18T11:10:30.827Z,64.47
2022-10-18T11:13:02.486Z,64.42
2022-10-18T11:15:42.862Z,64.20
2022-10-18T11:18:19.011Z,64.19
2022-10-18T11:21:08.384Z,64.13
2022-10-18T11:23:40.762Z,64.05
2022-10-18T11:26:13.751Z,63.98
2022-10-18T11:29:05.450Z,63.97
2022-10-18T11:31:44.303Z,64.06
2022-10-18T11:34:36.203Z,63.89
2022-10-18T11:37:40.887Z,63.90
2022-10-18T11:40:27.357Z,63.87
2022-10-18T11:43:03.624Z,63.88
2022-10-18T11:46:05.987Z,63.83
2022-10-18T11:48:44.881Z,63.85
2022-10-18T11:51:26.290Z,63.74
2022-10-18T11:54:18.286Z,63.62
2022-10-18T11:56:50.504Z,63.54
2022-10-18T11:59:40.743Z,63.35
2022-10-18T12:02:38.794Z,63.25
2022-10-18T12:05:24.059Z,63.22
2022-10-18T12:08:17.783Z,62.88
2022-10-18T12:11:04.513Z,63.12
2022-10-18T12:14:07.662Z,63.09
2022-10-18T12:16:50.370Z,63.00
2022-10-18T12:19:26.845Z,63.10
2022-10-18T12:21:57.362Z,63.02
2022-10-18T12:24:29.202Z,63.03
2022-10-18T12:27:00.114Z,63.15
2022-10-18T12:29:40.764Z,63.20
2022-10-18T12:32:15.190Z,63.26
2022-10-18T12:34:49.633Z,63.36
2022-10-18T12:37:44.522Z,63.52
2022-10-18T12:40:20.290Z,63.57
2022-10-18T12:42:49.862Z,63.67
2022-10-18T12:45:28.444Z,63.75
2022-10-18T12:48:00.147Z,63.75
2022-10-18T12:50:31.350Z,64.03
2022-10-18T12:53:20.040Z,63.88
2022-10-18T12:55:54.449Z,63.89
2022-10-18T12:58:22.862Z,64.36
2022-10-18T13:00:49.878Z,64.29
2022-10-18T13:03:17.404Z,64.50
2022-10-18T13:05:56.029Z,64.58
2022-10-18T13:08:30.459Z,64.70
2022-10-18T13:11:12.292Z,64.75
2022-10-18T13:16:33.929Z,64.86
2022-10-18T13:19:11.624Z,65.09
2022-10-18T13:21:47.483Z,65.29
2022-10-18T13:24:32.542Z,65.21
2022-10-18T13:27:35.519Z,65.31
2022-10-18T13:30:41.286Z,65.45
2022-10-18T13:33:08.663Z,65.49
2022-10-18T13:35:42.923Z,65.52
2022-10-18T13:38:31.125Z,65.77
2022-10-18T13:41:53.722Z,65.98
2022-10-18T13:44:37.453Z,65.99
2022-10-18T13:47:04.453Z,66.06
2022-10-18T13:49:40.431Z,66.30
2022-10-18T13:52:25.867Z,66.37
2022-10-18T13:55:30.225Z,66.56
2022-10-18T13:58:34.647Z,66.46
2022-10-18T14:01:53.339Z,66.60
2022-10-18T14:04:44.673Z,66.80
2022-10-18T14:07:12.091Z,67.07
2022-10-18T14:09:57.600Z,66.89
2022-10-18T14:12:44.014Z,67.05
2022-10-18T14:15:17.943Z,67.19
2022-10-18T14:17:48.171Z,67.48
2022-10-18T14:20:27.260Z,67.55
2022-10-18T14:23:21.778Z,67.50
2022-10-18T14:25:48.620Z,67.89
2022-10-18T14:28:36.340Z,67.97
2022-10-18T14:31:14.988Z,68.02
2022-10-18T14:33:57.875Z,68.04
2022-10-18T14:36:46.410Z,68.16
2022-10-18T14:39:27.755Z,68.04
2022-10-18T14:41:56.124Z,68.17
2022-10-18T14:44:31.303Z,68.46
2022-10-18T14:47:14.299Z,68.23
2022-10-18T14:49:46.287Z,68.33
2022-10-18T14:52:16.918Z,68.56
2022-10-18T14:54:44.513Z,68.80
2022-10-18T14:57:22.982Z,68.91
2022-10-18T14:59:54.003Z,69.00
2022-10-18T15:02:29.835Z,68.72
2022-10-18T15:05:17.155Z,68.84
2022-10-18T15:07:44.707Z,69.33
2022-10-18T15:10:17.679Z,69.43
2022-10-18T15:13:08.346Z,69.46
2022-10-18T15:15:33.744Z,69.24
2022-10-18T15:18:01.175Z,69.42
2022-10-18T15:20:33.946Z,69.53
2022-10-18T15:23:28.251Z,69.63
2022-10-18T15:26:05.504Z,69.71
2022-10-18T15:28:50.460Z,69.64
2022-10-18T15:31:30.624Z,69.84
2022-10-18T15:34:23.423Z,70.04
2022-10-18T15:36:52.422Z,70.27
2022-10-18T15:39:25.552Z,70.18
2022-10-18T15:41:56.324Z,70.26
2022-10-18T15:44:25.256Z,70.30
2022-10-18T15:46:55.571Z,70.70
2022-10-18T15:49:25.468Z,70.65
2022-10-18T15:52:36.696Z,70.99
2022-10-18T15:55:23.654Z,70.96
2022-10-18T15:57:50.851Z,70.86
2022-10-18T16:00:20.718Z,70.95
2022-10-18T16:02:47.785Z,71.44
2022-10-18T16:05:18.408Z,71.47
2022-10-18T16:07:45.362Z,71.64
2022-10-18T16:10:13.794Z,71.72
2022-10-18T16:12:41.332Z,71.83
2022-10-18T16:15:08.709Z,71.94
2022-10-18T16:17:35.813Z,71.83
2022-10-18T16:20:04.053Z,71.85
2022-10-18T16:22:34.677Z,72.18
2022-10-18T16:25:04.380Z,72.03
2022-10-18T16:27:31.485Z,72.08
2022-10-18T16:29:58.658Z,72.41
2022-10-18T16:32:25.657Z,72.41
2022-10-18T16:34:52.628Z,72.37
2022-10-18T16:37:19.635Z,72.61
2022-10-18T16:39:46.617Z,72.55
2022-10-18T16:42:13.547Z,72.58
2022-10-18T16:44:40.535Z,72.71
2022-10-18T16:47:07.455Z,72.84
2022-10-18T16:49:34.853Z,72.59
2022-10-18T16:52:02.041Z,72.75
2022-10-18T16:54:29.202Z,72.72
2022-10-18T16:56:58.425Z,72.70
2022-10-18T16:59:30.008Z,72.94
2022-10-18T17:01:57.443Z,73.06
2022-10-18T17:04:24.645Z,73.11
2022-10-18T17:06:52.875Z,73.22
2022-10-18T17:09:20.004Z,72.96
2022-10-18T17:11:46.933Z,73.18
2022-10-18T17:14:13.855Z,73.08
2022-10-18T17:16:41.071Z,73.18
2022-10-18T17:19:11.553Z,73.28
2022-10-18T17:21:38.785Z,73.32
2022-10-18T17:24:06.563Z,73.38
2022-10-18T17:26:34.431Z,73.44
2022-10-18T17:29:04.630Z,73.37
2022-10-18T17:31:32.760Z,73.48
2022-10-18T17:34:02.156Z,73.67
2022-10-18T17:36:30.776Z,73.45
2022-10-18T17:38:58.207Z,73.64
2022-10-18T17:41:25.328Z,73.63
2022-10-18T17:43:52.232Z,73.65
2022-10-18T17:46:19.725Z,73.84
2022-10-18T17:48:46.848Z,73.73
2022-10-18T17:51:16.594Z,73.84
2022-10-18T17:53:44.362Z,73.72
2022-10-18T17:56:12.183Z,73.89
2022-10-18T17:58:39.461Z,73.77
2022-10-18T18:01:10.493Z,73.74
2022-10-18T18:03:37.844Z,73.92
2022-10-18T18:06:21.726Z,73.87
2022-10-18T18:08:49.395Z,74.15
2022-10-18T18:11:17.072Z,74.12
2022-10-18T18:13:44.302Z,74.30
2022-10-18T18:16:16.256Z,74.22
2022-10-18T18:18:43.279Z,74.33
2022-10-18T18:21:10.588Z,74.05
2022-10-18T18:23:37.558Z,73.99
2022-10-18T18:26:04.753Z,74.35
2022-10-18T18:28:31.894Z,74.38
2022-10-18T18:30:59.043Z,74.29
2022-10-18T18:33:26.322Z,74.33
2022-10-18T18:35:59.527Z,74.25
2022-10-18T18:38:26.751Z,74.22
2022-10-18T18:41:13.651Z,74.20
2022-10-18T18:43:43.482Z,74.22
2022-10-18T18:46:11.109Z,74.28
2022-10-18T18:48:38.256Z,74.27
2022-10-18T18:51:06.632Z,74.43
2022-10-18T18:53:33.803Z,74.28
2022-10-18T18:56:02.571Z,74.43
2022-10-18T18:58:29.632Z,74.50
2022-10-18T19:00:56.729Z,74.42
2022-10-18T19:03:23.819Z,74.39
2022-10-18T19:05:50.983Z,74.56
2022-10-18T19:08:18.070Z,74.41
2022-10-18T19:10:49.246Z,74.35
2022-10-18T19:13:16.489Z,74.45
2022-10-18T19:15:43.619Z,74.38
2022-10-18T19:18:10.683Z,74.53
2022-10-18T19:20:37.784Z,74.64
2022-10-18T19:23:04.903Z,74.67
2022-10-18T19:25:32.066Z,74.33
2022-10-18T19:27:59.183Z,74.36
2022-10-18T19:30:26.347Z,74.51
2022-10-18T19:33:01.128Z,74.33
2022-10-18T19:35:30.662Z,74.21
2022-10-18T19:37:57.862Z,74.54
2022-10-18T19:40:24.982Z,74.55
2022-10-18T19:42:51.999Z,74.41
2022-10-18T19:45:19.231Z,74.41
2022-10-18T19:47:46.685Z,74.34
2022-10-18T19:50:14.087Z,74.34
2022-10-18T19:52:41.522Z,74.37
2022-10-18T19:55:09.365Z,74.54
2022-10-18T19:57:36.564Z,74.46
2022-10-18T20:00:08.228Z,74.48
2022-10-18T20:02:41.004Z,74.46
2022-10-18T20:05:08.383Z,74.36
2022-10-18T20:07:35.605Z,74.36
2022-10-18T20:10:03.782Z,74.40
2022-10-18T20:12:31.214Z,74.61
2022-10-18T20:14:58.665Z,74.41
2022-10-18T20:17:25.848Z,74.26
2022-10-18T20:19:53.185Z,74.35
2022-10-18T20:22:20.384Z,74.39
2022-10-18T20:24:47.502Z,74.34
2022-10-18T20:27:14.622Z,74.45
2022-10-18T20:29:41.952Z,74.38
2022-10-18T20:32:09.116Z,74.34
2022-10-18T20:34:36.006Z,74.50
2022-10-18T20:37:03.062Z,74.27
2022-10-18T20:39:30.029Z,74.70
2022-10-18T20:41:57.068Z,74.45
2022-10-18T20:44:26.299Z,74.34
2022-10-18T20:46:53.504Z,74.56
2022-10-18T20:49:20.388Z,74.65
2022-10-18T20:51:47.683Z,74.66
2022-10-18T20:54:14.746Z,74.84
2022-10-18T20:56:42.026Z,74.60
2022-10-18T20:59:10.263Z,74.78
2022-10-18T21:01:38.784Z,74.72
2022-10-18T21:04:07.771Z,74.85
2022-10-18T21:06:37.326Z,74.88
2022-10-18T21:09:06.696Z,74.64
2022-10-18T21:11:38.827Z,74.84
2022-10-18T21:14:06.868Z,74.56
2022-10-18T21:16:35.628Z,74.70
2022-10-18T21:19:26.703Z,74.84
2022-10-18T21:21:55.970Z,74.84
2022-10-18T21:24:24.903Z,74.63
2022-10-18T21:26:52.128Z,74.91
2022-10-18T21:29:22.346Z,74.88
2022-10-18T21:31:50.150Z,74.47
2022-10-18T21:34:17.622Z,74.59
2022-10-18T21:36:46.284Z,74.41
2022-10-18T21:39:18.804Z,74.52
2022-10-18T21:41:46.502Z,74.55
2022-10-18T21:44:14.252Z,74.83
2022-10-18T21:46:43.264Z,74.69
2022-10-18T21:49:11.286Z,74.73
2022-10-18T21:51:38.669Z,74.63
2022-10-18T21:54:08.262Z,74.74
2022-10-18T21:56:35.761Z,74.73
2022-10-18T21:59:03.881Z,74.69
2022-10-18T22:01:38.031Z,74.57
2022-10-18T22:04:19.308Z,74.58
2022-10-18T22:06:46.828Z,74.61
2022-10-18T22:09:13.704Z,74.52
2022-10-18T22:11:43.572Z,74.53
2022-10-18T22:14:10.924Z,74.58
2022-10-18T22:16:38.005Z,74.54
2022-10-18T22:19:05.974Z,74.45
2022-10-18T22:21:33.383Z,74.48
2022-10-18T22:24:00.884Z,74.53
2022-10-18T22:26:30.987Z,74.53
2022-10-18T22:29:10.363Z,74.54
2022-10-18T22:31:39.317Z,74.69
2022-10-18T22:34:08.806Z,74.30
2022-10-18T22:36:35.855Z,74.46
2022-10-18T22:39:05.567Z,74.48
2022-10-18T22:41:33.212Z,74.39
2022-10-18T22:44:03.467Z,74.24
2022-10-18T22:46:31.414Z,74.33
2022-10-18T22:48:58.351Z,74.28
2022-10-18T22:51:25.352Z,74.08
2022-10-18T22:53:52.409Z,73.82
2022-10-18T22:56:21.528Z,73.90
2022-10-18T22:58:48.987Z,73.82
2022-10-18T23:01:18.794Z,73.89
2022-10-18T23:03:45.806Z,73.74
2022-10-18T23:06:27.177Z,73.75
2022-10-18T23:08:55.373Z,73.86
2022-10-18T23:11:23.251Z,73.85
2022-10-18T23:13:50.806Z,73.71
2022-10-18T23:16:18.025Z,73.65
2022-10-18T23:18:49.591Z,73.79
2022-10-18T23:21:16.608Z,73.79
2022-10-18T23:23:43.862Z,73.72
2022-10-18T23:26:14.127Z,73.66
2022-10-18T23:28:43.104Z,73.82
2022-10-18T23:31:30.597Z,73.75
2022-10-18T23:33:59.392Z,73.82
2022-10-18T23:36:27.142Z,73.81
2022-10-18T23:38:54.543Z,73.72
2022-10-18T23:41:22.524Z,73.88
2022-10-18T23:43:49.755Z,73.79
2022-10-18T23:46:17.927Z,73.92
2022-10-18T23:48:45.185Z,73.83
2022-10-18T23:51:12.331Z,74.06
2022-10-18T23:53:39.773Z,74.11
2022-10-18T23:56:09.666Z,73.96
2022-10-18T23:58:37.815Z,74.23
